sensor_id;sensor_type;location;lat;lon;timestamp;temperature;humidity
69054;DHT22;56125;52.242;4.756;2023-07-30T00:02:07;20.90;63.80
69054;DHT22;56125;52.242;4.756;2023-07-30T00:07:09;21.50;64.30
69054;DHT22;56125;52.242;4.756;2023-07-30T00:12:10;21.90;64.40
69054;DHT22;56125;52.242;4.756;2023-07-30T00:17:11;21.50;64.10
69054;DHT22;56125;52.242;4.756;2023-07-30T00:22:12;21.50;64.10
69054;DHT22;56125;52.242;4.756;2023-07-30T00:27:13;21.50;64.20
69054;DHT22;56125;52.242;4.756;2023-07-30T00:32:14;21.50;64.30
69054;DHT22;56125;52.242;4.756;2023-07-30T00:37:17;21.50;64.30
69054;DHT22;56125;52.242;4.756;2023-07-30T00:42:18;21.50;64.40
69054;DHT22;56125;52.242;4.756;2023-07-30T00:47:19;21.50;64.50
69054;DHT22;56125;52.242;4.756;2023-07-30T00:52:21;21.50;64.50
69054;DHT22;56125;52.242;4.756;2023-07-30T00:57:23;21.50;64.50
69054;DHT22;56125;52.242;4.756;2023-07-30T01:02:25;21.50;64.50
69054;DHT22;56125;52.242;4.756;2023-07-30T01:07:26;21.50;64.50
69054;DHT22;56125;52.242;4.756;2023-07-30T01:12:29;21.50;64.50
69054;DHT22;56125;52.242;4.756;2023-07-30T01:17:31;21.50;64.50
69054;DHT22;56125;52.242;4.756;2023-07-30T01:22:32;21.40;64.60
69054;DHT22;56125;52.242;4.756;2023-07-30T01:27:37;21.50;64.60
69054;DHT22;56125;52.242;4.756;2023-07-30T01:32:40;21.50;64.60
69054;DHT22;56125;52.242;4.756;2023-07-30T01:37:43;21.40;64.80
69054;DHT22;56125;52.242;4.756;2023-07-30T01:42:45;21.40;64.80
69054;DHT22;56125;52.242;4.756;2023-07-30T01:47:46;21.40;64.80
69054;DHT22;56125;52.242;4.756;2023-07-30T01:52:47;21.40;64.90
69054;DHT22;56125;52.242;4.756;2023-07-30T01:57:48;21.30;64.90
69054;DHT22;56125;52.242;4.756;2023-07-30T02:02:49;21.40;64.80
69054;DHT22;56125;52.242;4.756;2023-07-30T02:07:50;21.40;65.00
69054;DHT22;56125;52.242;4.756;2023-07-30T02:12:51;21.40;64.90
69054;DHT22;56125;52.242;4.756;2023-07-30T02:17:52;21.40;65.00
69054;DHT22;56125;52.242;4.756;2023-07-30T02:22:53;21.40;65.30
69054;DHT22;56125;52.242;4.756;2023-07-30T02:27:54;21.40;65.20
69054;DHT22;56125;52.242;4.756;2023-07-30T02:32:55;21.40;65.40
69054;DHT22;56125;52.242;4.756;2023-07-30T02:37:56;21.40;65.50
69054;DHT22;56125;52.242;4.756;2023-07-30T02:42:57;21.40;65.60
69054;DHT22;56125;52.242;4.756;2023-07-30T02:47:58;21.40;65.50
69054;DHT22;56125;52.242;4.756;2023-07-30T02:52:59;21.40;65.50
69054;DHT22;56125;52.242;4.756;2023-07-30T02:58:00;21.40;65.70
69054;DHT22;56125;52.242;4.756;2023-07-30T03:03:01;21.40;65.70
69054;DHT22;56125;52.242;4.756;2023-07-30T03:08:02;21.40;65.50
69054;DHT22;56125;52.242;4.756;2023-07-30T03:13:03;21.50;65.80
69054;DHT22;56125;52.242;4.756;2023-07-30T03:18:04;21.30;65.60
69054;DHT22;56125;52.242;4.756;2023-07-30T03:23:05;21.50;65.60
69054;DHT22;56125;52.242;4.756;2023-07-30T03:28:06;21.40;65.60
69054;DHT22;56125;52.242;4.756;2023-07-30T03:33:07;21.40;65.60
69054;DHT22;56125;52.242;4.756;2023-07-30T03:38:08;21.40;65.00
69054;DHT22;56125;52.242;4.756;2023-07-30T03:43:09;21.40;64.70
69054;DHT22;56125;52.242;4.756;2023-07-30T03:48:10;21.40;64.40
69054;DHT22;56125;52.242;4.756;2023-07-30T03:53:11;21.40;64.30
69054;DHT22;56125;52.242;4.756;2023-07-30T03:58:13;21.40;64.20
69054;DHT22;56125;52.242;4.756;2023-07-30T04:03:14;21.40;64.10
69054;DHT22;56125;52.242;4.756;2023-07-30T04:08:16;21.30;63.80
69054;DHT22;56125;52.242;4.756;2023-07-30T04:13:17;22.00;63.90
69054;DHT22;56125;52.242;4.756;2023-07-30T04:18:18;21.40;63.30
69054;DHT22;56125;52.242;4.756;2023-07-30T04:23:20;21.40;63.10
69054;DHT22;56125;52.242;4.756;2023-07-30T04:28:21;21.30;63.00
69054;DHT22;56125;52.242;4.756;2023-07-30T04:33:22;21.40;62.60
69054;DHT22;56125;52.242;4.756;2023-07-30T04:38:23;21.30;62.40
69054;DHT22;56125;52.242;4.756;2023-07-30T04:43:25;21.20;61.80
69054;DHT22;56125;52.242;4.756;2023-07-30T04:48:26;21.30;61.90
69054;DHT22;56125;52.242;4.756;2023-07-30T04:53:27;21.30;61.70
69054;DHT22;56125;52.242;4.756;2023-07-30T04:58:28;21.30;61.70
69054;DHT22;56125;52.242;4.756;2023-07-30T05:03:29;21.30;61.70
69054;DHT22;56125;52.242;4.756;2023-07-30T05:08:30;21.30;61.60
69054;DHT22;56125;52.242;4.756;2023-07-30T05:13:31;21.30;61.40
69054;DHT22;56125;52.242;4.756;2023-07-30T05:18:32;21.30;61.70
69054;DHT22;56125;52.242;4.756;2023-07-30T05:23:33;21.30;61.40
69054;DHT22;56125;52.242;4.756;2023-07-30T05:28:34;21.30;61.40
69054;DHT22;56125;52.242;4.756;2023-07-30T05:33:35;21.30;61.50
69054;DHT22;56125;52.242;4.756;2023-07-30T05:38:36;21.30;61.60
69054;DHT22;56125;52.242;4.756;2023-07-30T05:43:37;21.30;61.80
69054;DHT22;56125;52.242;4.756;2023-07-30T05:48:38;21.30;61.80
69054;DHT22;56125;52.242;4.756;2023-07-30T05:53:39;21.30;61.40
69054;DHT22;56125;52.242;4.756;2023-07-30T05:58:40;21.30;61.80
69054;DHT22;56125;52.242;4.756;2023-07-30T06:03:41;21.30;61.50
69054;DHT22;56125;52.242;4.756;2023-07-30T06:08:42;21.30;62.00
69054;DHT22;56125;52.242;4.756;2023-07-30T06:13:43;21.40;61.60
69054;DHT22;56125;52.242;4.756;2023-07-30T06:18:44;21.30;61.20
69054;DHT22;56125;52.242;4.756;2023-07-30T06:23:45;21.30;61.90
69054;DHT22;56125;52.242;4.756;2023-07-30T06:28:46;21.30;62.00
69054;DHT22;56125;52.242;4.756;2023-07-30T06:33:47;21.30;62.10
69054;DHT22;56125;52.242;4.756;2023-07-30T06:38:48;21.30;62.10
69054;DHT22;56125;52.242;4.756;2023-07-30T06:43:49;21.30;62.20
69054;DHT22;56125;52.242;4.756;2023-07-30T06:48:50;21.30;62.40
69054;DHT22;56125;52.242;4.756;2023-07-30T06:53:51;21.30;62.60
69054;DHT22;56125;52.242;4.756;2023-07-30T06:58:52;21.30;62.70
69054;DHT22;56125;52.242;4.756;2023-07-30T07:03:53;21.30;62.80
69054;DHT22;56125;52.242;4.756;2023-07-30T07:08:54;21.30;62.90
69054;DHT22;56125;52.242;4.756;2023-07-30T07:13:55;20.80;63.80
69054;DHT22;56125;52.242;4.756;2023-07-30T07:18:56;21.30;63.20
69054;DHT22;56125;52.242;4.756;2023-07-30T07:23:57;21.80;63.60
69054;DHT22;56125;52.242;4.756;2023-07-30T07:28:58;21.30;63.50
69054;DHT22;56125;52.242;4.756;2023-07-30T07:33:59;21.30;63.90
69054;DHT22;56125;52.242;4.756;2023-07-30T07:39:00;21.30;63.60
69054;DHT22;56125;52.242;4.756;2023-07-30T07:44:01;21.30;63.50
69054;DHT22;56125;52.242;4.756;2023-07-30T07:49:02;21.30;63.10
69054;DHT22;56125;52.242;4.756;2023-07-30T07:54:03;21.20;62.80
69054;DHT22;56125;52.242;4.756;2023-07-30T07:59:04;21.30;62.90
69054;DHT22;56125;52.242;4.756;2023-07-30T08:04:05;21.20;62.70
69054;DHT22;56125;52.242;4.756;2023-07-30T08:09:06;21.20;62.70
69054;DHT22;56125;52.242;4.756;2023-07-30T08:14:07;21.60;62.90
69054;DHT22;56125;52.242;4.756;2023-07-30T08:19:08;21.30;62.60
69054;DHT22;56125;52.242;4.756;2023-07-30T08:24:09;21.20;62.40
69054;DHT22;56125;52.242;4.756;2023-07-30T08:29:10;21.00;62.20
69054;DHT22;56125;52.242;4.756;2023-07-30T08:34:14;21.20;62.30
69054;DHT22;56125;52.242;4.756;2023-07-30T08:39:15;21.20;62.30
69054;DHT22;56125;52.242;4.756;2023-07-30T08:44:16;21.20;62.50
69054;DHT22;56125;52.242;4.756;2023-07-30T08:49:17;21.20;62.80
69054;DHT22;56125;52.242;4.756;2023-07-30T08:54:20;21.20;63.30
69054;DHT22;56125;52.242;4.756;2023-07-30T08:59:24;21.20;63.10
69054;DHT22;56125;52.242;4.756;2023-07-30T09:04:29;21.30;63.70
69054;DHT22;56125;52.242;4.756;2023-07-30T09:09:35;21.30;63.60
69054;DHT22;56125;52.242;4.756;2023-07-30T09:14:38;21.30;62.70
69054;DHT22;56125;52.242;4.756;2023-07-30T09:19:39;21.20;62.00
69054;DHT22;56125;52.242;4.756;2023-07-30T09:24:43;21.30;61.60
69054;DHT22;56125;52.242;4.756;2023-07-30T09:29:54;21.20;61.40
69054;DHT22;56125;52.242;4.756;2023-07-30T09:34:55;21.20;61.40
69054;DHT22;56125;52.242;4.756;2023-07-30T09:39:57;21.20;61.30
69054;DHT22;56125;52.242;4.756;2023-07-30T09:44:58;21.20;60.60
69054;DHT22;56125;52.242;4.756;2023-07-30T09:50:02;21.20;60.70
69054;DHT22;56125;52.242;4.756;2023-07-30T09:55:06;21.20;60.60
69054;DHT22;56125;52.242;4.756;2023-07-30T10:00:08;21.20;60.40
69054;DHT22;56125;52.242;4.756;2023-07-30T10:05:15;21.80;60.80
69054;DHT22;56125;52.242;4.756;2023-07-30T10:10:18;21.50;61.20
69054;DHT22;56125;52.242;4.756;2023-07-30T10:15:20;21.30;61.60
69054;DHT22;56125;52.242;4.756;2023-07-30T10:20:26;21.30;61.40
69054;DHT22;56125;52.242;4.756;2023-07-30T10:30:55;21.30;61.40
69054;DHT22;56125;52.242;4.756;2023-07-30T10:35:57;21.30;61.30
69054;DHT22;56125;52.242;4.756;2023-07-30T10:46:01;21.30;62.50
69054;DHT22;56125;52.242;4.756;2023-07-30T10:51:08;21.30;62.50
69054;DHT22;56125;52.242;4.756;2023-07-30T10:56:09;21.30;62.50
69054;DHT22;56125;52.242;4.756;2023-07-30T11:01:11;21.30;62.30
69054;DHT22;56125;52.242;4.756;2023-07-30T11:06:12;21.30;61.90
69054;DHT22;56125;52.242;4.756;2023-07-30T11:11:13;21.20;61.80
69054;DHT22;56125;52.242;4.756;2023-07-30T11:16:15;21.30;61.60
69054;DHT22;56125;52.242;4.756;2023-07-30T11:21:17;21.30;61.60
69054;DHT22;56125;52.242;4.756;2023-07-30T11:26:19;21.30;61.60
69054;DHT22;56125;52.242;4.756;2023-07-30T11:31:20;21.30;61.70
69054;DHT22;56125;52.242;4.756;2023-07-30T11:36:24;21.30;61.80
69054;DHT22;56125;52.242;4.756;2023-07-30T11:41:26;21.30;61.40
69054;DHT22;56125;52.242;4.756;2023-07-30T11:46:27;21.40;61.30
69054;DHT22;56125;52.242;4.756;2023-07-30T11:51:30;21.20;60.80
69054;DHT22;56125;52.242;4.756;2023-07-30T11:56:32;21.80;61.30
69054;DHT22;56125;52.242;4.756;2023-07-30T12:01:36;21.30;61.10
69054;DHT22;56125;52.242;4.756;2023-07-30T12:06:42;21.30;61.00
69054;DHT22;56125;52.242;4.756;2023-07-30T12:11:50;21.30;60.90
69054;DHT22;56125;52.242;4.756;2023-07-30T12:16:52;21.30;61.00
69054;DHT22;56125;52.242;4.756;2023-07-30T12:21:53;21.30;61.10
69054;DHT22;56125;52.242;4.756;2023-07-30T12:26:54;21.30;61.10
69054;DHT22;56125;52.242;4.756;2023-07-30T12:31:55;20.80;60.40
69054;DHT22;56125;52.242;4.756;2023-07-30T12:36:56;21.40;60.50
69054;DHT22;56125;52.242;4.756;2023-07-30T12:41:58;21.40;60.60
69054;DHT22;56125;52.242;4.756;2023-07-30T12:46:59;21.40;60.60
69054;DHT22;56125;52.242;4.756;2023-07-30T12:52:00;21.30;60.50
69054;DHT22;56125;52.242;4.756;2023-07-30T12:57:01;21.30;60.30
69054;DHT22;56125;52.242;4.756;2023-07-30T13:02:03;21.40;60.30
69054;DHT22;56125;52.242;4.756;2023-07-30T13:07:05;21.30;60.10
69054;DHT22;56125;52.242;4.756;2023-07-30T13:12:06;21.30;60.10
69054;DHT22;56125;52.242;4.756;2023-07-30T13:17:07;21.40;60.20
69054;DHT22;56125;52.242;4.756;2023-07-30T13:22:08;21.30;59.90
69054;DHT22;56125;52.242;4.756;2023-07-30T13:27:09;21.30;59.50
69054;DHT22;56125;52.242;4.756;2023-07-30T13:32:10;21.40;59.90
69054;DHT22;56125;52.242;4.756;2023-07-30T13:37:11;21.30;59.70
69054;DHT22;56125;52.242;4.756;2023-07-30T13:42:12;22.10;60.20
69054;DHT22;56125;52.242;4.756;2023-07-30T13:47:13;21.40;60.10
69054;DHT22;56125;52.242;4.756;2023-07-30T13:52:14;21.40;60.00
69054;DHT22;56125;52.242;4.756;2023-07-30T13:57:25;21.40;60.40
69054;DHT22;56125;52.242;4.756;2023-07-30T14:02:26;21.40;60.10
69054;DHT22;56125;52.242;4.756;2023-07-30T14:07:28;20.90;60.10
69054;DHT22;56125;52.242;4.756;2023-07-30T14:12:29;21.40;60.30
69054;DHT22;56125;52.242;4.756;2023-07-30T14:17:30;21.40;60.40
69054;DHT22;56125;52.242;4.756;2023-07-30T14:22:31;21.40;59.80
69054;DHT22;56125;52.242;4.756;2023-07-30T14:27:32;21.20;59.30
69054;DHT22;56125;52.242;4.756;2023-07-30T14:32:33;21.40;58.80
69054;DHT22;56125;52.242;4.756;2023-07-30T14:37:34;21.40;59.00
69054;DHT22;56125;52.242;4.756;2023-07-30T14:42:35;21.30;58.80
69054;DHT22;56125;52.242;4.756;2023-07-30T14:47:36;21.30;58.90
69054;DHT22;56125;52.242;4.756;2023-07-30T14:52:37;21.40;59.00
69054;DHT22;56125;52.242;4.756;2023-07-30T14:57:38;21.30;58.70
69054;DHT22;56125;52.242;4.756;2023-07-30T15:02:40;21.40;59.20
69054;DHT22;56125;52.242;4.756;2023-07-30T15:07:41;21.40;59.20
69054;DHT22;56125;52.242;4.756;2023-07-30T15:12:42;21.40;59.10
69054;DHT22;56125;52.242;4.756;2023-07-30T15:17:43;21.40;58.90
69054;DHT22;56125;52.242;4.756;2023-07-30T15:22:44;21.30;59.00
69054;DHT22;56125;52.242;4.756;2023-07-30T15:27:45;21.30;59.40
69054;DHT22;56125;52.242;4.756;2023-07-30T15:32:46;21.30;59.40
69054;DHT22;56125;52.242;4.756;2023-07-30T15:37:47;21.30;59.40
69054;DHT22;56125;52.242;4.756;2023-07-30T15:42:48;21.30;59.50
69054;DHT22;56125;52.242;4.756;2023-07-30T15:47:49;21.30;59.80
69054;DHT22;56125;52.242;4.756;2023-07-30T15:52:50;21.30;60.00
69054;DHT22;56125;52.242;4.756;2023-07-30T15:57:51;21.30;60.10
69054;DHT22;56125;52.242;4.756;2023-07-30T16:02:55;21.30;60.40
69054;DHT22;56125;52.242;4.756;2023-07-30T16:07:56;21.30;60.70
69054;DHT22;56125;52.242;4.756;2023-07-30T16:12:57;21.30;60.90
69054;DHT22;56125;52.242;4.756;2023-07-30T16:17:59;21.30;61.00
69054;DHT22;56125;52.242;4.756;2023-07-30T16:23:00;21.30;61.20
69054;DHT22;56125;52.242;4.756;2023-07-30T16:28:01;21.30;61.50
69054;DHT22;56125;52.242;4.756;2023-07-30T16:33:02;21.30;61.60
69054;DHT22;56125;52.242;4.756;2023-07-30T16:38:04;21.30;61.70
69054;DHT22;56125;52.242;4.756;2023-07-30T16:43:05;21.30;61.80
69054;DHT22;56125;52.242;4.756;2023-07-30T16:48:06;21.30;62.00
69054;DHT22;56125;52.242;4.756;2023-07-30T16:53:07;21.30;62.40
69054;DHT22;56125;52.242;4.756;2023-07-30T16:58:08;21.30;62.70
69054;DHT22;56125;52.242;4.756;2023-07-30T17:03:09;21.30;62.90
69054;DHT22;56125;52.242;4.756;2023-07-30T17:08:10;21.30;62.90
69054;DHT22;56125;52.242;4.756;2023-07-30T17:13:14;21.30;63.20
69054;DHT22;56125;52.242;4.756;2023-07-30T17:18:15;21.30;63.20
69054;DHT22;56125;52.242;4.756;2023-07-30T17:23:16;21.30;63.40
69054;DHT22;56125;52.242;4.756;2023-07-30T17:28:18;21.30;63.40
69054;DHT22;56125;52.242;4.756;2023-07-30T17:33:20;21.30;63.40
69054;DHT22;56125;52.242;4.756;2023-07-30T17:38:21;21.30;63.60
69054;DHT22;56125;52.242;4.756;2023-07-30T17:43:22;21.20;63.90
69054;DHT22;56125;52.242;4.756;2023-07-30T17:48:23;21.30;64.10
69054;DHT22;56125;52.242;4.756;2023-07-30T17:53:24;21.20;64.20
69054;DHT22;56125;52.242;4.756;2023-07-30T17:58:25;21.30;64.30
69054;DHT22;56125;52.242;4.756;2023-07-30T18:03:26;21.30;64.30
69054;DHT22;56125;52.242;4.756;2023-07-30T18:08:27;21.30;64.30
69054;DHT22;56125;52.242;4.756;2023-07-30T18:13:28;21.30;64.70
69054;DHT22;56125;52.242;4.756;2023-07-30T18:18:30;21.20;64.90
69054;DHT22;56125;52.242;4.756;2023-07-30T18:23:31;21.30;64.90
69054;DHT22;56125;52.242;4.756;2023-07-30T18:28:32;21.30;65.00
69054;DHT22;56125;52.242;4.756;2023-07-30T18:33:33;21.20;65.20
69054;DHT22;56125;52.242;4.756;2023-07-30T18:38:34;21.30;65.20
69054;DHT22;56125;52.242;4.756;2023-07-30T18:43:35;21.20;65.10
69054;DHT22;56125;52.242;4.756;2023-07-30T18:48:36;21.40;65.10
69054;DHT22;56125;52.242;4.756;2023-07-30T18:53:37;21.30;65.30
69054;DHT22;56125;52.242;4.756;2023-07-30T18:58:38;21.20;65.30
69054;DHT22;56125;52.242;4.756;2023-07-30T19:03:39;21.20;65.50
69054;DHT22;56125;52.242;4.756;2023-07-30T19:08:40;21.20;65.50
69054;DHT22;56125;52.242;4.756;2023-07-30T19:13:41;21.20;65.50
69054;DHT22;56125;52.242;4.756;2023-07-30T19:18:42;21.20;65.40
69054;DHT22;56125;52.242;4.756;2023-07-30T19:23:43;21.20;65.40
69054;DHT22;56125;52.242;4.756;2023-07-30T19:28:44;21.30;65.40
69054;DHT22;56125;52.242;4.756;2023-07-30T19:33:45;21.20;65.40
69054;DHT22;56125;52.242;4.756;2023-07-30T19:38:46;21.20;65.50
69054;DHT22;56125;52.242;4.756;2023-07-30T19:43:47;21.30;65.60
69054;DHT22;56125;52.242;4.756;2023-07-30T19:48:48;21.30;65.50
69054;DHT22;56125;52.242;4.756;2023-07-30T19:53:49;21.30;65.40
69054;DHT22;56125;52.242;4.756;2023-07-30T19:58:50;21.30;65.50
69054;DHT22;56125;52.242;4.756;2023-07-30T20:03:51;21.20;65.40
69054;DHT22;56125;52.242;4.756;2023-07-30T20:08:52;21.30;65.50
69054;DHT22;56125;52.242;4.756;2023-07-30T20:13:53;21.30;65.50
69054;DHT22;56125;52.242;4.756;2023-07-30T20:18:54;21.20;65.40
69054;DHT22;56125;52.242;4.756;2023-07-30T20:23:55;21.30;65.50
69054;DHT22;56125;52.242;4.756;2023-07-30T20:28:56;21.20;65.30
69054;DHT22;56125;52.242;4.756;2023-07-30T20:34:01;21.30;65.30
69054;DHT22;56125;52.242;4.756;2023-07-30T20:39:02;21.30;65.20
69054;DHT22;56125;52.242;4.756;2023-07-30T20:44:03;21.20;65.10
69054;DHT22;56125;52.242;4.756;2023-07-30T20:49:04;21.30;65.20
69054;DHT22;56125;52.242;4.756;2023-07-30T20:54:05;21.20;65.10
69054;DHT22;56125;52.242;4.756;2023-07-30T20:59:06;21.20;65.20
69054;DHT22;56125;52.242;4.756;2023-07-30T21:04:07;21.20;65.00
69054;DHT22;56125;52.242;4.756;2023-07-30T21:09:08;21.20;65.20
69054;DHT22;56125;52.242;4.756;2023-07-30T21:14:09;21.20;65.10
69054;DHT22;56125;52.242;4.756;2023-07-30T21:19:10;21.20;65.70
69054;DHT22;56125;52.242;4.756;2023-07-30T21:24:11;21.20;65.20
69054;DHT22;56125;52.242;4.756;2023-07-30T21:29:12;21.20;65.20
69054;DHT22;56125;52.242;4.756;2023-07-30T21:34:13;21.20;65.20
69054;DHT22;56125;52.242;4.756;2023-07-30T21:39:14;21.20;65.20
69054;DHT22;56125;52.242;4.756;2023-07-30T21:44:15;21.20;65.20
69054;DHT22;56125;52.242;4.756;2023-07-30T21:49:16;21.70;65.60
69054;DHT22;56125;52.242;4.756;2023-07-30T21:54:17;21.20;65.20
69054;DHT22;56125;52.242;4.756;2023-07-30T21:59:18;21.20;65.20
69054;DHT22;56125;52.242;4.756;2023-07-30T22:04:19;21.20;65.40
69054;DHT22;56125;52.242;4.756;2023-07-30T22:09:20;21.20;65.40
69054;DHT22;56125;52.242;4.756;2023-07-30T22:14:22;21.20;65.50
69054;DHT22;56125;52.242;4.756;2023-07-30T22:19:23;21.20;65.60
69054;DHT22;56125;52.242;4.756;2023-07-30T22:24:24;21.10;65.60
69054;DHT22;56125;52.242;4.756;2023-07-30T22:29:25;21.20;65.70
69054;DHT22;56125;52.242;4.756;2023-07-30T22:34:26;21.20;65.70
69054;DHT22;56125;52.242;4.756;2023-07-30T22:39:28;21.10;65.70
69054;DHT22;56125;52.242;4.756;2023-07-30T22:44:29;21.10;65.70
69054;DHT22;56125;52.242;4.756;2023-07-30T22:49:30;21.10;65.70
69054;DHT22;56125;52.242;4.756;2023-07-30T22:54:31;21.10;65.60
69054;DHT22;56125;52.242;4.756;2023-07-30T22:59:32;21.10;65.70
69054;DHT22;56125;52.242;4.756;2023-07-30T23:04:34;21.10;65.80
69054;DHT22;56125;52.242;4.756;2023-07-30T23:09:35;21.10;66.30
69054;DHT22;56125;52.242;4.756;2023-07-30T23:14:36;21.10;66.90
69054;DHT22;56125;52.242;4.756;2023-07-30T23:19:37;21.10;67.50
69054;DHT22;56125;52.242;4.756;2023-07-30T23:24:38;21.10;67.70
69054;DHT22;56125;52.242;4.756;2023-07-30T23:29:39;21.10;67.90
69054;DHT22;56125;52.242;4.756;2023-07-30T23:34:40;21.10;68.10
69054;DHT22;56125;52.242;4.756;2023-07-30T23:39:41;21.10;68.20
69054;DHT22;56125;52.242;4.756;2023-07-30T23:44:42;21.10;68.20
69054;DHT22;56125;52.242;4.756;2023-07-30T23:49:43;21.10;68.30
69054;DHT22;56125;52.242;4.756;2023-07-30T23:54:44;21.10;68.40
69054;DHT22;56125;52.242;4.756;2023-07-30T23:59:45;21.10;68.50
